sensor_id;sensor_type;location;lat;lon;timestamp;P1;durP1;ratioP1;P2;durP2;ratioP2
17207;SDS011;8720;48.488;9.202;2023-11-25T00:01:34;1.87;;;1.60;;
17207;SDS011;8720;48.488;9.202;2023-11-25T00:04:01;2.40;;;1.50;;
17207;SDS011;8720;48.488;9.202;2023-11-25T00:06:28;2.47;;;1.43;;
17207;SDS011;8720;48.488;9.202;2023-11-25T00:08:57;4.07;;;1.70;;
17207;SDS011;8720;48.488;9.202;2023-11-25T00:11:25;3.57;;;1.27;;
17207;SDS011;8720;48.488;9.202;2023-11-25T00:13:52;3.03;;;1.30;;
17207;SDS011;8720;48.488;9.202;2023-11-25T00:16:19;2.87;;;1.40;;
17207;SDS011;8720;48.488;9.202;2023-11-25T00:18:47;2.40;;;1.37;;
17207;SDS011;8720;48.488;9.202;2023-11-25T00:21:14;2.63;;;1.30;;
17207;SDS011;8720;48.488;9.202;2023-11-25T00:23:41;2.67;;;2.47;;
17207;SDS011;8720;48.488;9.202;2023-11-25T00:26:10;1.60;;;1.33;;
17207;SDS011;8720;48.488;9.202;2023-11-25T00:28:43;4.80;;;2.13;;
17207;SDS011;8720;48.488;9.202;2023-11-25T00:31:11;5.67;;;1.40;;
17207;SDS011;8720;48.488;9.202;2023-11-25T00:33:39;2.60;;;1.30;;
17207;SDS011;8720;48.488;9.202;2023-11-25T00:36:07;3.57;;;1.47;;
17207;SDS011;8720;48.488;9.202;2023-11-25T00:38:36;3.93;;;1.20;;
17207;SDS011;8720;48.488;9.202;2023-11-25T00:41:04;3.20;;;1.50;;
17207;SDS011;8720;48.488;9.202;2023-11-25T00:43:33;1.80;;;1.30;;
17207;SDS011;8720;48.488;9.202;2023-11-25T00:46:01;2.33;;;1.30;;
17207;SDS011;8720;48.488;9.202;2023-11-25T00:48:29;2.77;;;1.40;;
17207;SDS011;8720;48.488;9.202;2023-11-25T00:51:00;4.50;;;1.90;;
17207;SDS011;8720;48.488;9.202;2023-11-25T00:53:27;3.00;;;1.50;;
17207;SDS011;8720;48.488;9.202;2023-11-25T00:55:55;2.30;;;1.20;;
17207;SDS011;8720;48.488;9.202;2023-11-25T00:58:22;5.53;;;1.60;;
17207;SDS011;8720;48.488;9.202;2023-11-25T01:00:51;3.73;;;1.70;;
17207;SDS011;8720;48.488;9.202;2023-11-25T01:03:18;2.10;;;1.30;;
17207;SDS011;8720;48.488;9.202;2023-11-25T01:05:46;2.00;;;1.40;;
17207;SDS011;8720;48.488;9.202;2023-11-25T01:08:14;3.53;;;1.77;;
17207;SDS011;8720;48.488;9.202;2023-11-25T01:10:41;6.83;;;1.73;;
17207;SDS011;8720;48.488;9.202;2023-11-25T01:13:09;2.67;;;1.80;;
17207;SDS011;8720;48.488;9.202;2023-11-25T01:15:36;4.03;;;1.87;;
17207;SDS011;8720;48.488;9.202;2023-11-25T01:18:05;2.83;;;1.30;;
17207;SDS011;8720;48.488;9.202;2023-11-25T01:20:33;1.50;;;1.10;;
17207;SDS011;8720;48.488;9.202;2023-11-25T01:23:00;3.00;;;1.63;;
17207;SDS011;8720;48.488;9.202;2023-11-25T01:25:28;2.80;;;1.40;;
17207;SDS011;8720;48.488;9.202;2023-11-25T01:27:55;5.40;;;1.30;;
17207;SDS011;8720;48.488;9.202;2023-11-25T01:30:23;2.57;;;1.50;;
17207;SDS011;8720;48.488;9.202;2023-11-25T01:32:50;1.97;;;1.20;;
17207;SDS011;8720;48.488;9.202;2023-11-25T01:35:19;3.50;;;1.57;;
17207;SDS011;8720;48.488;9.202;2023-11-25T01:37:47;3.80;;;1.80;;
17207;SDS011;8720;48.488;9.202;2023-11-25T01:40:14;4.57;;;1.40;;
17207;SDS011;8720;48.488;9.202;2023-11-25T01:42:42;3.20;;;1.27;;
17207;SDS011;8720;48.488;9.202;2023-11-25T01:45:09;4.90;;;1.40;;
17207;SDS011;8720;48.488;9.202;2023-11-25T01:47:37;3.70;;;1.50;;
17207;SDS011;8720;48.488;9.202;2023-11-25T01:50:08;3.90;;;1.87;;
17207;SDS011;8720;48.488;9.202;2023-11-25T01:52:37;2.63;;;1.90;;
17207;SDS011;8720;48.488;9.202;2023-11-25T01:55:06;2.23;;;1.13;;
17207;SDS011;8720;48.488;9.202;2023-11-25T01:57:35;5.07;;;1.57;;
17207;SDS011;8720;48.488;9.202;2023-11-25T02:00:03;3.00;;;1.50;;
17207;SDS011;8720;48.488;9.202;2023-11-25T02:02:39;3.60;;;1.53;;
17207;SDS011;8720;48.488;9.202;2023-11-25T02:05:09;2.47;;;1.40;;
17207;SDS011;8720;48.488;9.202;2023-11-25T02:07:38;2.33;;;1.30;;
17207;SDS011;8720;48.488;9.202;2023-11-25T02:10:06;1.70;;;1.40;;
17207;SDS011;8720;48.488;9.202;2023-11-25T02:12:36;5.30;;;1.60;;
17207;SDS011;8720;48.488;9.202;2023-11-25T02:17:36;2.53;;;1.40;;
17207;SDS011;8720;48.488;9.202;2023-11-25T02:20:04;3.07;;;1.40;;
17207;SDS011;8720;48.488;9.202;2023-11-25T02:22:35;4.10;;;1.20;;
17207;SDS011;8720;48.488;9.202;2023-11-25T02:25:06;3.73;;;1.63;;
17207;SDS011;8720;48.488;9.202;2023-11-25T02:27:34;3.10;;;1.40;;
17207;SDS011;8720;48.488;9.202;2023-11-25T02:30:01;2.90;;;1.20;;
17207;SDS011;8720;48.488;9.202;2023-11-25T02:32:33;3.50;;;1.70;;
17207;SDS011;8720;48.488;9.202;2023-11-25T02:35:00;2.40;;;1.97;;
17207;SDS011;8720;48.488;9.202;2023-11-25T02:37:28;2.50;;;1.40;;
17207;SDS011;8720;48.488;9.202;2023-11-25T02:39:55;2.50;;;1.60;;
17207;SDS011;8720;48.488;9.202;2023-11-25T02:42:24;3.40;;;1.77;;
17207;SDS011;8720;48.488;9.202;2023-11-25T02:44:52;4.33;;;1.70;;
17207;SDS011;8720;48.488;9.202;2023-11-25T02:47:19;2.53;;;1.50;;
17207;SDS011;8720;48.488;9.202;2023-11-25T02:49:46;2.10;;;1.40;;
17207;SDS011;8720;48.488;9.202;2023-11-25T02:52:14;4.87;;;1.57;;
17207;SDS011;8720;48.488;9.202;2023-11-25T02:54:41;5.13;;;1.80;;
17207;SDS011;8720;48.488;9.202;2023-11-25T02:57:09;5.17;;;1.60;;
17207;SDS011;8720;48.488;9.202;2023-11-25T02:59:38;2.70;;;1.70;;
17207;SDS011;8720;48.488;9.202;2023-11-25T03:02:06;3.17;;;1.30;;
17207;SDS011;8720;48.488;9.202;2023-11-25T03:04:35;3.20;;;1.60;;
17207;SDS011;8720;48.488;9.202;2023-11-25T03:07:06;3.50;;;1.43;;
17207;SDS011;8720;48.488;9.202;2023-11-25T03:09:34;3.83;;;1.40;;
17207;SDS011;8720;48.488;9.202;2023-11-25T03:12:04;3.93;;;1.70;;
17207;SDS011;8720;48.488;9.202;2023-11-25T03:14:32;2.90;;;1.30;;
17207;SDS011;8720;48.488;9.202;2023-11-25T03:17:01;5.23;;;2.20;;
17207;SDS011;8720;48.488;9.202;2023-11-25T03:19:28;5.63;;;2.20;;
17207;SDS011;8720;48.488;9.202;2023-11-25T03:21:55;3.80;;;1.60;;
17207;SDS011;8720;48.488;9.202;2023-11-25T03:24:23;5.43;;;1.50;;
17207;SDS011;8720;48.488;9.202;2023-11-25T03:26:50;6.70;;;1.70;;
17207;SDS011;8720;48.488;9.202;2023-11-25T03:29:18;4.67;;;1.80;;
17207;SDS011;8720;48.488;9.202;2023-11-25T03:31:45;3.53;;;1.20;;
17207;SDS011;8720;48.488;9.202;2023-11-25T03:34:14;4.03;;;1.60;;
17207;SDS011;8720;48.488;9.202;2023-11-25T03:36:41;6.20;;;1.67;;
17207;SDS011;8720;48.488;9.202;2023-11-25T03:39:08;2.60;;;1.60;;
17207;SDS011;8720;48.488;9.202;2023-11-25T03:41:38;4.57;;;1.90;;
17207;SDS011;8720;48.488;9.202;2023-11-25T03:44:06;3.77;;;1.40;;
17207;SDS011;8720;48.488;9.202;2023-11-25T03:46:33;4.60;;;1.87;;
17207;SDS011;8720;48.488;9.202;2023-11-25T03:49:00;5.03;;;1.90;;
17207;SDS011;8720;48.488;9.202;2023-11-25T03:51:29;8.20;;;1.77;;
17207;SDS011;8720;48.488;9.202;2023-11-25T03:53:56;5.33;;;1.60;;
17207;SDS011;8720;48.488;9.202;2023-11-25T03:56:23;3.23;;;1.70;;
17207;SDS011;8720;48.488;9.202;2023-11-25T03:58:51;2.70;;;1.53;;
17207;SDS011;8720;48.488;9.202;2023-11-25T04:01:19;6.50;;;1.53;;
17207;SDS011;8720;48.488;9.202;2023-11-25T04:03:46;4.93;;;1.60;;
17207;SDS011;8720;48.488;9.202;2023-11-25T04:06:14;3.20;;;1.40;;
17207;SDS011;8720;48.488;9.202;2023-11-25T04:08:42;3.20;;;2.10;;
17207;SDS011;8720;48.488;9.202;2023-11-25T04:11:10;3.20;;;1.63;;
17207;SDS011;8720;48.488;9.202;2023-11-25T04:13:38;2.60;;;1.73;;
17207;SDS011;8720;48.488;9.202;2023-11-25T04:16:05;6.80;;;2.03;;
17207;SDS011;8720;48.488;9.202;2023-11-25T04:18:34;2.97;;;1.90;;
17207;SDS011;8720;48.488;9.202;2023-11-25T04:21:03;2.70;;;2.00;;
17207;SDS011;8720;48.488;9.202;2023-11-25T04:23:31;1.73;;;1.60;;
17207;SDS011;8720;48.488;9.202;2023-11-25T04:26:03;4.80;;;1.87;;
17207;SDS011;8720;48.488;9.202;2023-11-25T04:28:31;3.03;;;1.90;;
17207;SDS011;8720;48.488;9.202;2023-11-25T04:30:59;4.30;;;1.83;;
17207;SDS011;8720;48.488;9.202;2023-11-25T04:33:27;3.90;;;2.10;;
17207;SDS011;8720;48.488;9.202;2023-11-25T04:35:55;4.93;;;2.20;;
17207;SDS011;8720;48.488;9.202;2023-11-25T04:38:22;6.57;;;2.77;;
17207;SDS011;8720;48.488;9.202;2023-11-25T04:40:49;7.40;;;2.43;;
17207;SDS011;8720;48.488;9.202;2023-11-25T04:43:18;2.43;;;1.83;;
17207;SDS011;8720;48.488;9.202;2023-11-25T04:45:45;3.10;;;1.60;;
17207;SDS011;8720;48.488;9.202;2023-11-25T04:48:13;4.30;;;3.10;;
17207;SDS011;8720;48.488;9.202;2023-11-25T04:50:41;3.80;;;2.10;;
17207;SDS011;8720;48.488;9.202;2023-11-25T04:53:08;6.37;;;2.17;;
17207;SDS011;8720;48.488;9.202;2023-11-25T04:55:35;5.07;;;2.03;;
17207;SDS011;8720;48.488;9.202;2023-11-25T04:58:02;6.10;;;2.43;;
17207;SDS011;8720;48.488;9.202;2023-11-25T05:00:31;4.17;;;1.90;;
17207;SDS011;8720;48.488;9.202;2023-11-25T05:02:58;3.20;;;1.93;;
17207;SDS011;8720;48.488;9.202;2023-11-25T05:05:26;3.73;;;1.83;;
17207;SDS011;8720;48.488;9.202;2023-11-25T05:07:53;3.93;;;1.80;;
17207;SDS011;8720;48.488;9.202;2023-11-25T05:10:20;6.63;;;2.07;;
17207;SDS011;8720;48.488;9.202;2023-11-25T05:12:48;2.70;;;1.70;;
17207;SDS011;8720;48.488;9.202;2023-11-25T05:15:16;5.13;;;2.00;;
17207;SDS011;8720;48.488;9.202;2023-11-25T05:17:45;2.10;;;1.70;;
17207;SDS011;8720;48.488;9.202;2023-11-25T05:20:12;3.27;;;1.70;;
17207;SDS011;8720;48.488;9.202;2023-11-25T05:22:41;2.23;;;1.50;;
17207;SDS011;8720;48.488;9.202;2023-11-25T05:25:08;5.13;;;2.00;;
17207;SDS011;8720;48.488;9.202;2023-11-25T05:27:36;5.17;;;2.03;;
17207;SDS011;8720;48.488;9.202;2023-11-25T05:30:04;5.83;;;2.30;;
17207;SDS011;8720;48.488;9.202;2023-11-25T05:32:33;6.30;;;1.63;;
17207;SDS011;8720;48.488;9.202;2023-11-25T05:35:02;4.20;;;2.10;;
17207;SDS011;8720;48.488;9.202;2023-11-25T05:37:32;1.70;;;1.57;;
17207;SDS011;8720;48.488;9.202;2023-11-25T05:39:59;5.00;;;2.30;;
17207;SDS011;8720;48.488;9.202;2023-11-25T05:42:27;5.00;;;1.90;;
17207;SDS011;8720;48.488;9.202;2023-11-25T05:44:54;2.73;;;1.80;;
17207;SDS011;8720;48.488;9.202;2023-11-25T05:47:23;5.43;;;1.70;;
17207;SDS011;8720;48.488;9.202;2023-11-25T05:49:50;6.87;;;2.07;;
17207;SDS011;8720;48.488;9.202;2023-11-25T05:52:19;4.67;;;1.93;;
17207;SDS011;8720;48.488;9.202;2023-11-25T05:54:47;5.13;;;1.60;;
17207;SDS011;8720;48.488;9.202;2023-11-25T05:57:14;6.97;;;2.07;;
17207;SDS011;8720;48.488;9.202;2023-11-25T05:59:41;5.67;;;1.80;;
17207;SDS011;8720;48.488;9.202;2023-11-25T06:02:09;3.43;;;2.23;;
17207;SDS011;8720;48.488;9.202;2023-11-25T06:04:36;3.13;;;1.83;;
17207;SDS011;8720;48.488;9.202;2023-11-25T06:07:04;2.83;;;1.70;;
17207;SDS011;8720;48.488;9.202;2023-11-25T06:09:32;4.63;;;2.00;;
17207;SDS011;8720;48.488;9.202;2023-11-25T06:12:00;4.03;;;1.90;;
17207;SDS011;8720;48.488;9.202;2023-11-25T06:14:27;2.90;;;1.70;;
17207;SDS011;8720;48.488;9.202;2023-11-25T06:16:58;4.97;;;2.60;;
17207;SDS011;8720;48.488;9.202;2023-11-25T06:19:27;4.80;;;2.20;;
17207;SDS011;8720;48.488;9.202;2023-11-25T06:21:56;3.80;;;1.80;;
17207;SDS011;8720;48.488;9.202;2023-11-25T06:24:24;6.30;;;1.90;;
17207;SDS011;8720;48.488;9.202;2023-11-25T06:26:53;4.13;;;2.20;;
17207;SDS011;8720;48.488;9.202;2023-11-25T06:29:20;4.70;;;2.27;;
17207;SDS011;8720;48.488;9.202;2023-11-25T06:31:48;4.70;;;2.40;;
17207;SDS011;8720;48.488;9.202;2023-11-25T06:34:15;3.37;;;1.53;;
17207;SDS011;8720;48.488;9.202;2023-11-25T06:36:42;2.83;;;1.80;;
17207;SDS011;8720;48.488;9.202;2023-11-25T06:39:11;4.30;;;2.00;;
17207;SDS011;8720;48.488;9.202;2023-11-25T06:41:40;2.53;;;2.33;;
17207;SDS011;8720;48.488;9.202;2023-11-25T06:44:15;4.75;;;1.90;;
17207;SDS011;8720;48.488;9.202;2023-11-25T06:46:43;2.70;;;1.70;;
17207;SDS011;8720;48.488;9.202;2023-11-25T06:49:11;5.23;;;2.90;;
17207;SDS011;8720;48.488;9.202;2023-11-25T06:51:39;7.60;;;3.37;;
17207;SDS011;8720;48.488;9.202;2023-11-25T06:54:07;7.27;;;3.73;;
17207;SDS011;8720;48.488;9.202;2023-11-25T06:56:35;4.83;;;2.93;;
17207;SDS011;8720;48.488;9.202;2023-11-25T06:59:03;4.80;;;2.50;;
17207;SDS011;8720;48.488;9.202;2023-11-25T07:01:33;4.10;;;1.90;;
17207;SDS011;8720;48.488;9.202;2023-11-25T07:04:00;5.80;;;2.10;;
17207;SDS011;8720;48.488;9.202;2023-11-25T07:06:29;3.93;;;1.70;;
17207;SDS011;8720;48.488;9.202;2023-11-25T07:08:56;5.20;;;1.80;;
17207;SDS011;8720;48.488;9.202;2023-11-25T07:11:25;3.43;;;1.70;;
17207;SDS011;8720;48.488;9.202;2023-11-25T07:13:55;3.33;;;1.80;;
17207;SDS011;8720;48.488;9.202;2023-11-25T07:16:23;4.53;;;2.10;;
17207;SDS011;8720;48.488;9.202;2023-11-25T07:18:51;3.70;;;2.07;;
17207;SDS011;8720;48.488;9.202;2023-11-25T07:21:20;6.10;;;2.20;;
17207;SDS011;8720;48.488;9.202;2023-11-25T07:23:49;6.37;;;2.20;;
17207;SDS011;8720;48.488;9.202;2023-11-25T07:26:16;5.30;;;2.50;;
17207;SDS011;8720;48.488;9.202;2023-11-25T07:28:44;5.40;;;2.70;;
17207;SDS011;8720;48.488;9.202;2023-11-25T07:31:11;6.17;;;2.23;;
17207;SDS011;8720;48.488;9.202;2023-11-25T07:33:39;5.30;;;2.77;;
17207;SDS011;8720;48.488;9.202;2023-11-25T07:36:08;10.07;;;3.43;;
17207;SDS011;8720;48.488;9.202;2023-11-25T07:38:35;4.20;;;2.90;;
17207;SDS011;8720;48.488;9.202;2023-11-25T07:41:02;3.83;;;2.27;;
17207;SDS011;8720;48.488;9.202;2023-11-25T07:43:30;4.30;;;2.07;;
17207;SDS011;8720;48.488;9.202;2023-11-25T07:45:58;5.40;;;2.10;;
17207;SDS011;8720;48.488;9.202;2023-11-25T07:48:25;6.63;;;2.40;;
17207;SDS011;8720;48.488;9.202;2023-11-25T07:50:52;3.90;;;2.47;;
17207;SDS011;8720;48.488;9.202;2023-11-25T07:53:21;4.13;;;1.90;;
17207;SDS011;8720;48.488;9.202;2023-11-25T07:55:49;3.27;;;2.20;;
17207;SDS011;8720;48.488;9.202;2023-11-25T07:58:17;4.27;;;2.47;;
17207;SDS011;8720;48.488;9.202;2023-11-25T08:00:44;6.63;;;2.97;;
17207;SDS011;8720;48.488;9.202;2023-11-25T08:03:12;4.10;;;2.00;;
17207;SDS011;8720;48.488;9.202;2023-11-25T08:05:39;3.47;;;1.70;;
17207;SDS011;8720;48.488;9.202;2023-11-25T08:08:06;5.20;;;1.93;;
17207;SDS011;8720;48.488;9.202;2023-11-25T08:10:35;4.30;;;1.70;;
17207;SDS011;8720;48.488;9.202;2023-11-25T08:13:02;4.90;;;2.20;;
17207;SDS011;8720;48.488;9.202;2023-11-25T08:15:30;11.20;;;4.57;;
17207;SDS011;8720;48.488;9.202;2023-11-25T08:17:58;9.20;;;4.77;;
17207;SDS011;8720;48.488;9.202;2023-11-25T08:20:25;5.20;;;3.63;;
17207;SDS011;8720;48.488;9.202;2023-11-25T08:22:53;6.80;;;2.50;;
17207;SDS011;8720;48.488;9.202;2023-11-25T08:25:20;5.73;;;3.57;;
17207;SDS011;8720;48.488;9.202;2023-11-25T08:27:49;8.37;;;3.13;;
17207;SDS011;8720;48.488;9.202;2023-11-25T08:30:17;8.10;;;4.73;;
17207;SDS011;8720;48.488;9.202;2023-11-25T08:32:46;7.53;;;4.47;;
17207;SDS011;8720;48.488;9.202;2023-11-25T08:35:13;8.37;;;4.40;;
17207;SDS011;8720;48.488;9.202;2023-11-25T08:37:40;10.50;;;3.87;;
17207;SDS011;8720;48.488;9.202;2023-11-25T08:40:08;5.33;;;2.50;;
17207;SDS011;8720;48.488;9.202;2023-11-25T08:42:41;4.23;;;2.50;;
17207;SDS011;8720;48.488;9.202;2023-11-25T08:45:11;5.67;;;2.20;;
17207;SDS011;8720;48.488;9.202;2023-11-25T08:47:39;3.47;;;2.10;;
17207;SDS011;8720;48.488;9.202;2023-11-25T08:50:07;4.73;;;2.40;;
17207;SDS011;8720;48.488;9.202;2023-11-25T08:52:39;3.43;;;2.07;;
17207;SDS011;8720;48.488;9.202;2023-11-25T08:55:07;2.33;;;1.90;;
17207;SDS011;8720;48.488;9.202;2023-11-25T08:57:35;3.70;;;1.93;;
17207;SDS011;8720;48.488;9.202;2023-11-25T09:00:03;6.03;;;2.00;;
17207;SDS011;8720;48.488;9.202;2023-11-25T09:02:41;4.00;;;2.20;;
17207;SDS011;8720;48.488;9.202;2023-11-25T09:05:09;7.83;;;3.40;;
17207;SDS011;8720;48.488;9.202;2023-11-25T09:07:40;8.13;;;3.37;;
17207;SDS011;8720;48.488;9.202;2023-11-25T09:10:09;5.30;;;2.70;;
17207;SDS011;8720;48.488;9.202;2023-11-25T09:12:37;8.30;;;3.10;;
17207;SDS011;8720;48.488;9.202;2023-11-25T09:15:06;4.37;;;1.70;;
17207;SDS011;8720;48.488;9.202;2023-11-25T09:17:37;3.40;;;1.83;;
17207;SDS011;8720;48.488;9.202;2023-11-25T09:20:08;3.20;;;2.03;;
17207;SDS011;8720;48.488;9.202;2023-11-25T09:22:41;5.20;;;2.27;;
17207;SDS011;8720;48.488;9.202;2023-11-25T09:25:10;5.10;;;1.93;;
17207;SDS011;8720;48.488;9.202;2023-11-25T09:27:38;3.33;;;1.87;;
17207;SDS011;8720;48.488;9.202;2023-11-25T09:30:06;4.63;;;3.00;;
17207;SDS011;8720;48.488;9.202;2023-11-25T09:32:36;4.07;;;2.63;;
17207;SDS011;8720;48.488;9.202;2023-11-25T09:35:06;2.80;;;1.70;;
17207;SDS011;8720;48.488;9.202;2023-11-25T09:37:36;4.37;;;2.30;;
17207;SDS011;8720;48.488;9.202;2023-11-25T09:40:04;3.97;;;2.43;;
17207;SDS011;8720;48.488;9.202;2023-11-25T09:42:39;3.97;;;1.83;;
17207;SDS011;8720;48.488;9.202;2023-11-25T09:45:09;3.13;;;2.13;;
17207;SDS011;8720;48.488;9.202;2023-11-25T09:47:38;7.00;;;3.53;;
17207;SDS011;8720;48.488;9.202;2023-11-25T09:50:10;5.80;;;2.37;;
17207;SDS011;8720;48.488;9.202;2023-11-25T09:52:39;6.30;;;2.40;;
17207;SDS011;8720;48.488;9.202;2023-11-25T09:55:15;9.23;;;3.73;;
17207;SDS011;8720;48.488;9.202;2023-11-25T09:57:44;8.03;;;3.40;;
17207;SDS011;8720;48.488;9.202;2023-11-25T10:00:15;5.00;;;2.57;;
17207;SDS011;8720;48.488;9.202;2023-11-25T10:02:48;7.83;;;2.90;;
17207;SDS011;8720;48.488;9.202;2023-11-25T10:05:20;6.83;;;2.80;;
17207;SDS011;8720;48.488;9.202;2023-11-25T10:07:47;3.13;;;2.10;;
17207;SDS011;8720;48.488;9.202;2023-11-25T10:10:15;7.13;;;2.87;;
17207;SDS011;8720;48.488;9.202;2023-11-25T10:12:48;4.60;;;2.50;;
17207;SDS011;8720;48.488;9.202;2023-11-25T10:15:17;8.57;;;3.20;;
17207;SDS011;8720;48.488;9.202;2023-11-25T10:17:48;5.47;;;2.57;;
17207;SDS011;8720;48.488;9.202;2023-11-25T10:20:16;5.93;;;2.47;;
17207;SDS011;8720;48.488;9.202;2023-11-25T10:22:47;7.60;;;3.53;;
17207;SDS011;8720;48.488;9.202;2023-11-25T10:25:18;5.53;;;2.30;;
17207;SDS011;8720;48.488;9.202;2023-11-25T10:27:47;5.63;;;2.80;;
17207;SDS011;8720;48.488;9.202;2023-11-25T10:30:16;6.37;;;2.00;;
17207;SDS011;8720;48.488;9.202;2023-11-25T10:32:45;3.20;;;2.70;;
17207;SDS011;8720;48.488;9.202;2023-11-25T10:35:14;3.00;;;2.33;;
17207;SDS011;8720;48.488;9.202;2023-11-25T10:37:42;4.33;;;2.37;;
17207;SDS011;8720;48.488;9.202;2023-11-25T10:40:13;4.57;;;3.10;;
17207;SDS011;8720;48.488;9.202;2023-11-25T10:42:41;7.97;;;2.70;;
17207;SDS011;8720;48.488;9.202;2023-11-25T10:45:14;4.43;;;2.50;;
17207;SDS011;8720;48.488;9.202;2023-11-25T10:47:42;6.13;;;2.70;;
17207;SDS011;8720;48.488;9.202;2023-11-25T10:50:09;13.03;;;4.50;;
17207;SDS011;8720;48.488;9.202;2023-11-25T10:52:38;3.70;;;2.90;;
17207;SDS011;8720;48.488;9.202;2023-11-25T10:55:10;4.57;;;3.27;;
17207;SDS011;8720;48.488;9.202;2023-11-25T10:57:40;6.73;;;2.60;;
17207;SDS011;8720;48.488;9.202;2023-11-25T11:00:11;8.87;;;3.30;;
17207;SDS011;8720;48.488;9.202;2023-11-25T11:02:41;12.20;;;3.13;;
17207;SDS011;8720;48.488;9.202;2023-11-25T11:05:12;7.17;;;2.90;;
17207;SDS011;8720;48.488;9.202;2023-11-25T11:07:45;5.80;;;3.40;;
17207;SDS011;8720;48.488;9.202;2023-11-25T11:10:23;8.00;;;3.10;;
17207;SDS011;8720;48.488;9.202;2023-11-25T11:13:03;5.37;;;2.73;;
17207;SDS011;8720;48.488;9.202;2023-11-25T11:15:37;6.30;;;2.97;;
17207;SDS011;8720;48.488;9.202;2023-11-25T11:18:11;7.10;;;3.30;;
17207;SDS011;8720;48.488;9.202;2023-11-25T11:20:46;5.87;;;2.63;;
17207;SDS011;8720;48.488;9.202;2023-11-25T11:23:15;5.27;;;2.90;;
17207;SDS011;8720;48.488;9.202;2023-11-25T11:25:51;7.53;;;3.20;;
17207;SDS011;8720;48.488;9.202;2023-11-25T11:28:29;10.93;;;2.90;;
17207;SDS011;8720;48.488;9.202;2023-11-25T11:34:23;9.97;;;3.10;;
17207;SDS011;8720;48.488;9.202;2023-11-25T11:36:54;6.43;;;2.63;;
17207;SDS011;8720;48.488;9.202;2023-11-25T11:39:31;9.67;;;3.00;;
17207;SDS011;8720;48.488;9.202;2023-11-25T11:44:58;7.43;;;2.40;;
17207;SDS011;8720;48.488;9.202;2023-11-25T11:47:51;3.50;;;2.50;;
17207;SDS011;8720;48.488;9.202;2023-11-25T11:50:20;5.53;;;2.87;;
17207;SDS011;8720;48.488;9.202;2023-11-25T11:55:41;5.87;;;2.60;;
17207;SDS011;8720;48.488;9.202;2023-11-25T11:58:17;3.37;;;2.30;;
17207;SDS011;8720;48.488;9.202;2023-11-25T12:00:46;8.63;;;2.83;;
17207;SDS011;8720;48.488;9.202;2023-11-25T12:03:18;7.27;;;2.40;;
17207;SDS011;8720;48.488;9.202;2023-11-25T12:05:47;6.80;;;2.27;;
17207;SDS011;8720;48.488;9.202;2023-11-25T12:08:16;9.07;;;2.70;;
17207;SDS011;8720;48.488;9.202;2023-11-25T12:10:44;5.03;;;2.70;;
17207;SDS011;8720;48.488;9.202;2023-11-25T12:13:24;4.80;;;2.40;;
17207;SDS011;8720;48.488;9.202;2023-11-25T12:15:52;7.17;;;2.70;;
17207;SDS011;8720;48.488;9.202;2023-11-25T12:18:24;3.80;;;1.90;;
17207;SDS011;8720;48.488;9.202;2023-11-25T12:20:52;6.00;;;2.50;;
17207;SDS011;8720;48.488;9.202;2023-11-25T12:23:20;5.57;;;2.27;;
17207;SDS011;8720;48.488;9.202;2023-11-25T12:25:47;4.37;;;2.20;;
17207;SDS011;8720;48.488;9.202;2023-11-25T12:28:15;4.53;;;2.33;;
17207;SDS011;8720;48.488;9.202;2023-11-25T12:30:44;6.00;;;2.00;;
17207;SDS011;8720;48.488;9.202;2023-11-25T12:33:11;3.47;;;2.03;;
17207;SDS011;8720;48.488;9.202;2023-11-25T12:35:39;3.53;;;1.50;;
17207;SDS011;8720;48.488;9.202;2023-11-25T12:38:09;2.70;;;2.10;;
17207;SDS011;8720;48.488;9.202;2023-11-25T12:40:37;4.53;;;2.10;;
17207;SDS011;8720;48.488;9.202;2023-11-25T12:43:06;4.73;;;2.00;;
17207;SDS011;8720;48.488;9.202;2023-11-25T12:45:36;7.50;;;2.10;;
17207;SDS011;8720;48.488;9.202;2023-11-25T12:48:07;3.80;;;1.90;;
17207;SDS011;8720;48.488;9.202;2023-11-25T12:53:28;5.73;;;2.53;;
17207;SDS011;8720;48.488;9.202;2023-11-25T12:55:56;5.33;;;2.70;;
17207;SDS011;8720;48.488;9.202;2023-11-25T12:58:25;4.33;;;2.00;;
17207;SDS011;8720;48.488;9.202;2023-11-25T13:00:53;5.63;;;2.23;;
17207;SDS011;8720;48.488;9.202;2023-11-25T13:03:24;4.17;;;2.00;;
17207;SDS011;8720;48.488;9.202;2023-11-25T13:05:56;3.73;;;3.10;;
17207;SDS011;8720;48.488;9.202;2023-11-25T13:08:25;4.80;;;2.87;;
17207;SDS011;8720;48.488;9.202;2023-11-25T13:10:58;6.90;;;2.40;;
17207;SDS011;8720;48.488;9.202;2023-11-25T13:13:29;4.70;;;2.30;;
17207;SDS011;8720;48.488;9.202;2023-11-25T13:15:58;4.40;;;2.60;;
17207;SDS011;8720;48.488;9.202;2023-11-25T13:18:28;6.67;;;2.50;;
17207;SDS011;8720;48.488;9.202;2023-11-25T13:20:55;11.50;;;2.40;;
17207;SDS011;8720;48.488;9.202;2023-11-25T13:23:23;6.30;;;2.00;;
17207;SDS011;8720;48.488;9.202;2023-11-25T13:25:51;6.50;;;3.77;;
17207;SDS011;8720;48.488;9.202;2023-11-25T13:28:18;7.90;;;2.80;;
17207;SDS011;8720;48.488;9.202;2023-11-25T13:30:47;4.53;;;1.90;;
17207;SDS011;8720;48.488;9.202;2023-11-25T13:33:14;5.63;;;2.10;;
17207;SDS011;8720;48.488;9.202;2023-11-25T13:35:43;4.10;;;1.93;;
17207;SDS011;8720;48.488;9.202;2023-11-25T13:38:12;4.00;;;2.10;;
17207;SDS011;8720;48.488;9.202;2023-11-25T13:40:41;6.80;;;2.20;;
17207;SDS011;8720;48.488;9.202;2023-11-25T13:43:09;3.47;;;2.07;;
17207;SDS011;8720;48.488;9.202;2023-11-25T13:45:39;6.63;;;2.97;;
17207;SDS011;8720;48.488;9.202;2023-11-25T13:48:07;5.20;;;1.90;;
17207;SDS011;8720;48.488;9.202;2023-11-25T13:50:37;3.67;;;1.60;;
17207;SDS011;8720;48.488;9.202;2023-11-25T13:53:06;3.30;;;1.80;;
17207;SDS011;8720;48.488;9.202;2023-11-25T13:55:33;10.57;;;2.20;;
17207;SDS011;8720;48.488;9.202;2023-11-25T13:58:07;5.27;;;1.93;;
17207;SDS011;8720;48.488;9.202;2023-11-25T14:00:35;4.10;;;1.83;;
17207;SDS011;8720;48.488;9.202;2023-11-25T14:03:03;3.80;;;2.00;;
17207;SDS011;8720;48.488;9.202;2023-11-25T14:05:32;4.33;;;1.67;;
17207;SDS011;8720;48.488;9.202;2023-11-25T14:08:03;3.90;;;2.17;;
17207;SDS011;8720;48.488;9.202;2023-11-25T14:10:33;3.47;;;1.90;;
17207;SDS011;8720;48.488;9.202;2023-11-25T14:13:02;2.10;;;1.60;;
17207;SDS011;8720;48.488;9.202;2023-11-25T14:15:31;5.70;;;1.83;;
17207;SDS011;8720;48.488;9.202;2023-11-25T14:17:58;3.07;;;2.40;;
17207;SDS011;8720;48.488;9.202;2023-11-25T14:20:27;7.33;;;3.20;;
17207;SDS011;8720;48.488;9.202;2023-11-25T14:22:55;7.53;;;3.63;;
17207;SDS011;8720;48.488;9.202;2023-11-25T14:25:25;5.37;;;2.67;;
17207;SDS011;8720;48.488;9.202;2023-11-25T14:27:53;10.00;;;3.53;;
17207;SDS011;8720;48.488;9.202;2023-11-25T14:30:21;6.60;;;2.50;;
17207;SDS011;8720;48.488;9.202;2023-11-25T14:32:53;4.30;;;2.40;;
17207;SDS011;8720;48.488;9.202;2023-11-25T14:35:21;4.47;;;2.40;;
17207;SDS011;8720;48.488;9.202;2023-11-25T14:37:49;4.27;;;2.23;;
17207;SDS011;8720;48.488;9.202;2023-11-25T14:40:19;4.67;;;2.77;;
17207;SDS011;8720;48.488;9.202;2023-11-25T14:42:50;6.40;;;2.40;;
17207;SDS011;8720;48.488;9.202;2023-11-25T14:45:18;5.13;;;2.60;;
17207;SDS011;8720;48.488;9.202;2023-11-25T14:47:46;4.60;;;2.30;;
17207;SDS011;8720;48.488;9.202;2023-11-25T14:50:14;3.30;;;2.10;;
17207;SDS011;8720;48.488;9.202;2023-11-25T14:52:41;6.70;;;2.53;;
17207;SDS011;8720;48.488;9.202;2023-11-25T14:55:09;3.13;;;2.37;;
17207;SDS011;8720;48.488;9.202;2023-11-25T14:57:37;7.50;;;2.87;;
17207;SDS011;8720;48.488;9.202;2023-11-25T15:00:06;6.70;;;4.33;;
17207;SDS011;8720;48.488;9.202;2023-11-25T15:02:38;6.60;;;3.30;;
17207;SDS011;8720;48.488;9.202;2023-11-25T15:05:06;9.43;;;3.97;;
17207;SDS011;8720;48.488;9.202;2023-11-25T15:07:35;8.07;;;3.57;;
17207;SDS011;8720;48.488;9.202;2023-11-25T15:10:03;5.13;;;3.90;;
17207;SDS011;8720;48.488;9.202;2023-11-25T15:12:31;6.40;;;3.90;;
17207;SDS011;8720;48.488;9.202;2023-11-25T15:14:59;5.00;;;2.73;;
17207;SDS011;8720;48.488;9.202;2023-11-25T15:17:29;7.00;;;2.63;;
17207;SDS011;8720;48.488;9.202;2023-11-25T15:19:56;6.27;;;2.90;;
17207;SDS011;8720;48.488;9.202;2023-11-25T15:22:24;6.10;;;3.30;;
17207;SDS011;8720;48.488;9.202;2023-11-25T15:24:52;4.40;;;2.80;;